sensor_id;sensor_type;location;lat;lon;timestamp;P1;durP1;ratioP1;P2;durP2;ratioP2
64686;SDS011;51113;53.646;-113.674;2023-04-06T00:01:43;9.65;;;3.78;;
64686;SDS011;51113;53.646;-113.674;2023-04-06T00:04:12;17.52;;;3.50;;
64686;SDS011;51113;53.646;-113.674;2023-04-06T00:06:41;7.30;;;3.47;;
64686;SDS011;51113;53.646;-113.674;2023-04-06T00:09:10;9.40;;;3.30;;
64686;SDS011;51113;53.646;-113.674;2023-04-06T00:11:38;7.63;;;3.28;;
64686;SDS011;51113;53.646;-113.674;2023-04-06T00:14:11;9.80;;;3.58;;
64686;SDS011;51113;53.646;-113.674;2023-04-06T00:16:40;14.85;;;3.92;;
64686;SDS011;51113;53.646;-113.674;2023-04-06T00:19:09;9.07;;;4.10;;
64686;SDS011;51113;53.646;-113.674;2023-04-06T00:21:38;8.52;;;3.90;;
64686;SDS011;51113;53.646;-113.674;2023-04-06T00:24:07;10.90;;;4.30;;
64686;SDS011;51113;53.646;-113.674;2023-04-06T00:26:36;7.05;;;4.25;;
64686;SDS011;51113;53.646;-113.674;2023-04-06T00:29:05;6.75;;;4.25;;
64686;SDS011;51113;53.646;-113.674;2023-04-06T00:31:33;10.52;;;4.72;;
64686;SDS011;51113;53.646;-113.674;2023-04-06T00:34:02;6.68;;;4.70;;
64686;SDS011;51113;53.646;-113.674;2023-04-06T00:36:31;9.50;;;5.00;;
64686;SDS011;51113;53.646;-113.674;2023-04-06T00:39:00;9.40;;;5.10;;
64686;SDS011;51113;53.646;-113.674;2023-04-06T00:41:28;9.80;;;4.95;;
64686;SDS011;51113;53.646;-113.674;2023-04-06T00:43:56;10.15;;;4.90;;
64686;SDS011;51113;53.646;-113.674;2023-04-06T00:46:25;7.43;;;4.55;;
64686;SDS011;51113;53.646;-113.674;2023-04-06T00:48:54;11.23;;;5.25;;
64686;SDS011;51113;53.646;-113.674;2023-04-06T00:51:23;12.23;;;4.25;;
64686;SDS011;51113;53.646;-113.674;2023-04-06T00:53:53;8.98;;;4.55;;
64686;SDS011;51113;53.646;-113.674;2023-04-06T00:56:22;9.23;;;4.70;;
64686;SDS011;51113;53.646;-113.674;2023-04-06T00:58:51;17.67;;;4.63;;
64686;SDS011;51113;53.646;-113.674;2023-04-06T01:01:20;7.13;;;4.20;;
64686;SDS011;51113;53.646;-113.674;2023-04-06T01:03:49;12.25;;;4.35;;
64686;SDS011;51113;53.646;-113.674;2023-04-06T01:06:18;9.35;;;4.20;;
64686;SDS011;51113;53.646;-113.674;2023-04-06T01:08:47;8.85;;;4.03;;
64686;SDS011;51113;53.646;-113.674;2023-04-06T01:11:17;10.85;;;4.25;;
64686;SDS011;51113;53.646;-113.674;2023-04-06T01:13:46;10.52;;;4.18;;
64686;SDS011;51113;53.646;-113.674;2023-04-06T01:16:15;7.35;;;3.80;;
64686;SDS011;51113;53.646;-113.674;2023-04-06T01:18:43;7.40;;;3.70;;
64686;SDS011;51113;53.646;-113.674;2023-04-06T01:21:12;6.55;;;3.83;;
64686;SDS011;51113;53.646;-113.674;2023-04-06T01:23:44;11.05;;;4.00;;
64686;SDS011;51113;53.646;-113.674;2023-04-06T01:26:13;8.50;;;3.75;;
64686;SDS011;51113;53.646;-113.674;2023-04-06T01:28:42;6.90;;;3.78;;
64686;SDS011;51113;53.646;-113.674;2023-04-06T01:31:12;7.85;;;3.78;;
64686;SDS011;51113;53.646;-113.674;2023-04-06T01:33:41;5.93;;;3.40;;
64686;SDS011;51113;53.646;-113.674;2023-04-06T01:36:09;6.88;;;4.20;;
64686;SDS011;51113;53.646;-113.674;2023-04-06T01:38:38;8.13;;;3.67;;
64686;SDS011;51113;53.646;-113.674;2023-04-06T01:41:07;9.27;;;3.40;;
64686;SDS011;51113;53.646;-113.674;2023-04-06T01:43:36;9.18;;;3.67;;
64686;SDS011;51113;53.646;-113.674;2023-04-06T01:46:05;10.30;;;3.75;;
64686;SDS011;51113;53.646;-113.674;2023-04-06T01:48:34;9.90;;;3.80;;
64686;SDS011;51113;53.646;-113.674;2023-04-06T01:51:03;7.10;;;3.15;;
64686;SDS011;51113;53.646;-113.674;2023-04-06T01:53:31;10.98;;;3.20;;
64686;SDS011;51113;53.646;-113.674;2023-04-06T01:56:00;7.65;;;3.35;;
64686;SDS011;51113;53.646;-113.674;2023-04-06T01:58:29;10.40;;;3.45;;
64686;SDS011;51113;53.646;-113.674;2023-04-06T02:00:57;11.35;;;3.38;;
64686;SDS011;51113;53.646;-113.674;2023-04-06T02:03:26;8.75;;;3.17;;
64686;SDS011;51113;53.646;-113.674;2023-04-06T02:05:55;8.48;;;3.20;;
64686;SDS011;51113;53.646;-113.674;2023-04-06T02:08:23;8.65;;;3.33;;
64686;SDS011;51113;53.646;-113.674;2023-04-06T02:10:53;5.32;;;3.00;;
64686;SDS011;51113;53.646;-113.674;2023-04-06T02:13:22;9.80;;;3.30;;
64686;SDS011;51113;53.646;-113.674;2023-04-06T02:15:50;4.90;;;3.08;;
64686;SDS011;51113;53.646;-113.674;2023-04-06T02:18:19;4.65;;;2.80;;
64686;SDS011;51113;53.646;-113.674;2023-04-06T02:20:48;4.72;;;2.65;;
64686;SDS011;51113;53.646;-113.674;2023-04-06T02:23:17;6.03;;;2.38;;
64686;SDS011;51113;53.646;-113.674;2023-04-06T02:25:46;10.77;;;2.20;;
64686;SDS011;51113;53.646;-113.674;2023-04-06T02:28:14;10.25;;;2.03;;
64686;SDS011;51113;53.646;-113.674;2023-04-06T02:30:43;5.03;;;2.17;;
64686;SDS011;51113;53.646;-113.674;2023-04-06T02:33:12;6.10;;;1.90;;
64686;SDS011;51113;53.646;-113.674;2023-04-06T02:35:41;7.40;;;2.22;;
64686;SDS011;51113;53.646;-113.674;2023-04-06T02:38:10;3.90;;;2.10;;
64686;SDS011;51113;53.646;-113.674;2023-04-06T02:40:38;6.28;;;2.47;;
64686;SDS011;51113;53.646;-113.674;2023-04-06T02:43:07;7.45;;;2.20;;
64686;SDS011;51113;53.646;-113.674;2023-04-06T02:45:36;5.38;;;2.30;;
64686;SDS011;51113;53.646;-113.674;2023-04-06T02:48:05;10.88;;;3.95;;
64686;SDS011;51113;53.646;-113.674;2023-04-06T02:50:33;7.65;;;3.30;;
64686;SDS011;51113;53.646;-113.674;2023-04-06T02:53:02;11.02;;;3.10;;
64686;SDS011;51113;53.646;-113.674;2023-04-06T02:55:31;6.60;;;3.28;;
64686;SDS011;51113;53.646;-113.674;2023-04-06T02:58:00;8.40;;;3.70;;
64686;SDS011;51113;53.646;-113.674;2023-04-06T03:00:28;7.72;;;3.40;;
64686;SDS011;51113;53.646;-113.674;2023-04-06T03:02:57;12.32;;;3.85;;
64686;SDS011;51113;53.646;-113.674;2023-04-06T03:05:28;13.90;;;5.05;;
64686;SDS011;51113;53.646;-113.674;2023-04-06T03:07:56;14.27;;;4.97;;
64686;SDS011;51113;53.646;-113.674;2023-04-06T03:10:26;13.20;;;5.25;;
64686;SDS011;51113;53.646;-113.674;2023-04-06T03:12:54;13.20;;;5.47;;
64686;SDS011;51113;53.646;-113.674;2023-04-06T03:15:23;14.20;;;5.80;;
64686;SDS011;51113;53.646;-113.674;2023-04-06T03:17:52;10.55;;;5.88;;
64686;SDS011;51113;53.646;-113.674;2023-04-06T03:20:24;18.08;;;5.53;;
64686;SDS011;51113;53.646;-113.674;2023-04-06T03:22:52;22.83;;;6.40;;
64686;SDS011;51113;53.646;-113.674;2023-04-06T03:25:21;12.75;;;6.00;;
64686;SDS011;51113;53.646;-113.674;2023-04-06T03:27:50;15.55;;;6.50;;
64686;SDS011;51113;53.646;-113.674;2023-04-06T03:30:19;20.77;;;7.47;;
64686;SDS011;51113;53.646;-113.674;2023-04-06T03:32:48;10.50;;;6.50;;
64686;SDS011;51113;53.646;-113.674;2023-04-06T03:35:16;14.88;;;7.22;;
64686;SDS011;51113;53.646;-113.674;2023-04-06T03:37:45;15.68;;;7.25;;
64686;SDS011;51113;53.646;-113.674;2023-04-06T03:40:14;15.10;;;7.28;;
64686;SDS011;51113;53.646;-113.674;2023-04-06T03:42:43;18.02;;;8.05;;
64686;SDS011;51113;53.646;-113.674;2023-04-06T03:45:11;23.20;;;8.13;;
64686;SDS011;51113;53.646;-113.674;2023-04-06T03:47:43;17.15;;;7.75;;
64686;SDS011;51113;53.646;-113.674;2023-04-06T03:50:12;17.73;;;7.93;;
64686;SDS011;51113;53.646;-113.674;2023-04-06T03:52:41;17.15;;;8.02;;
64686;SDS011;51113;53.646;-113.674;2023-04-06T03:55:09;19.00;;;8.68;;
64686;SDS011;51113;53.646;-113.674;2023-04-06T03:57:38;25.75;;;8.50;;
64686;SDS011;51113;53.646;-113.674;2023-04-06T04:00:07;16.70;;;8.73;;
64686;SDS011;51113;53.646;-113.674;2023-04-06T04:02:36;20.42;;;8.73;;
64686;SDS011;51113;53.646;-113.674;2023-04-06T04:05:05;18.38;;;9.20;;
64686;SDS011;51113;53.646;-113.674;2023-04-06T04:07:35;17.98;;;9.02;;
64686;SDS011;51113;53.646;-113.674;2023-04-06T04:10:03;16.30;;;8.63;;
64686;SDS011;51113;53.646;-113.674;2023-04-06T04:12:33;20.38;;;9.73;;
64686;SDS011;51113;53.646;-113.674;2023-04-06T04:15:02;17.15;;;9.55;;
64686;SDS011;51113;53.646;-113.674;2023-04-06T04:17:30;20.52;;;9.38;;
64686;SDS011;51113;53.646;-113.674;2023-04-06T04:19:59;17.75;;;8.90;;
64686;SDS011;51113;53.646;-113.674;2023-04-06T04:22:28;17.33;;;9.25;;
64686;SDS011;51113;53.646;-113.674;2023-04-06T04:24:57;17.38;;;9.38;;
64686;SDS011;51113;53.646;-113.674;2023-04-06T04:27:25;18.85;;;9.55;;
64686;SDS011;51113;53.646;-113.674;2023-04-06T04:29:53;17.52;;;10.35;;
64686;SDS011;51113;53.646;-113.674;2023-04-06T04:32:22;24.48;;;10.15;;
64686;SDS011;51113;53.646;-113.674;2023-04-06T04:34:54;20.02;;;9.77;;
64686;SDS011;51113;53.646;-113.674;2023-04-06T04:37:23;18.23;;;9.43;;
64686;SDS011;51113;53.646;-113.674;2023-04-06T04:39:51;18.98;;;9.75;;
64686;SDS011;51113;53.646;-113.674;2023-04-06T04:42:20;25.00;;;10.05;;
64686;SDS011;51113;53.646;-113.674;2023-04-06T04:44:49;21.30;;;10.52;;
64686;SDS011;51113;53.646;-113.674;2023-04-06T04:47:18;23.02;;;10.27;;
64686;SDS011;51113;53.646;-113.674;2023-04-06T04:49:47;20.92;;;11.32;;
64686;SDS011;51113;53.646;-113.674;2023-04-06T04:52:16;19.50;;;10.70;;
64686;SDS011;51113;53.646;-113.674;2023-04-06T04:54:44;21.55;;;10.40;;
64686;SDS011;51113;53.646;-113.674;2023-04-06T04:57:14;22.58;;;10.88;;
64686;SDS011;51113;53.646;-113.674;2023-04-06T04:59:43;18.83;;;10.50;;
64686;SDS011;51113;53.646;-113.674;2023-04-06T05:02:12;22.65;;;10.30;;
64686;SDS011;51113;53.646;-113.674;2023-04-06T05:04:41;22.95;;;10.32;;
64686;SDS011;51113;53.646;-113.674;2023-04-06T05:07:10;26.40;;;10.45;;
64686;SDS011;51113;53.646;-113.674;2023-04-06T05:09:38;19.20;;;10.77;;
64686;SDS011;51113;53.646;-113.674;2023-04-06T05:12:07;23.92;;;11.23;;
64686;SDS011;51113;53.646;-113.674;2023-04-06T05:14:37;20.42;;;11.30;;
64686;SDS011;51113;53.646;-113.674;2023-04-06T05:17:05;23.55;;;11.52;;
64686;SDS011;51113;53.646;-113.674;2023-04-06T05:19:34;26.33;;;11.35;;
64686;SDS011;51113;53.646;-113.674;2023-04-06T05:22:03;21.77;;;11.02;;
64686;SDS011;51113;53.646;-113.674;2023-04-06T05:24:32;20.42;;;10.13;;
64686;SDS011;51113;53.646;-113.674;2023-04-06T05:27:00;23.95;;;11.43;;
64686;SDS011;51113;53.646;-113.674;2023-04-06T05:29:29;25.90;;;11.82;;
64686;SDS011;51113;53.646;-113.674;2023-04-06T05:31:58;28.40;;;11.88;;
64686;SDS011;51113;53.646;-113.674;2023-04-06T05:34:27;29.02;;;11.70;;
64686;SDS011;51113;53.646;-113.674;2023-04-06T05:36:55;25.65;;;11.65;;
64686;SDS011;51113;53.646;-113.674;2023-04-06T05:39:24;22.65;;;12.18;;
64686;SDS011;51113;53.646;-113.674;2023-04-06T05:41:53;25.33;;;12.45;;
64686;SDS011;51113;53.646;-113.674;2023-04-06T05:44:22;21.77;;;12.20;;
64686;SDS011;51113;53.646;-113.674;2023-04-06T05:46:51;27.63;;;13.02;;
64686;SDS011;51113;53.646;-113.674;2023-04-06T05:49:20;22.95;;;12.52;;
64686;SDS011;51113;53.646;-113.674;2023-04-06T05:51:48;28.25;;;12.70;;
64686;SDS011;51113;53.646;-113.674;2023-04-06T05:54:17;35.03;;;13.23;;
64686;SDS011;51113;53.646;-113.674;2023-04-06T05:56:46;24.08;;;12.68;;
64686;SDS011;51113;53.646;-113.674;2023-04-06T05:59:15;26.17;;;12.38;;
64686;SDS011;51113;53.646;-113.674;2023-04-06T06:01:44;19.95;;;12.23;;
64686;SDS011;51113;53.646;-113.674;2023-04-06T06:04:12;25.45;;;11.77;;
64686;SDS011;51113;53.646;-113.674;2023-04-06T06:06:41;24.05;;;11.82;;
64686;SDS011;51113;53.646;-113.674;2023-04-06T06:09:10;27.00;;;13.32;;
64686;SDS011;51113;53.646;-113.674;2023-04-06T06:11:38;25.73;;;12.73;;
64686;SDS011;51113;53.646;-113.674;2023-04-06T06:14:09;26.83;;;13.48;;
64686;SDS011;51113;53.646;-113.674;2023-04-06T06:16:37;24.92;;;12.57;;
64686;SDS011;51113;53.646;-113.674;2023-04-06T06:19:06;27.90;;;12.50;;
64686;SDS011;51113;53.646;-113.674;2023-04-06T06:21:35;30.73;;;12.85;;
64686;SDS011;51113;53.646;-113.674;2023-04-06T06:24:04;20.52;;;12.35;;
64686;SDS011;51113;53.646;-113.674;2023-04-06T06:26:33;26.77;;;13.18;;
64686;SDS011;51113;53.646;-113.674;2023-04-06T06:29:05;23.38;;;12.15;;
64686;SDS011;51113;53.646;-113.674;2023-04-06T06:31:34;25.17;;;11.68;;
64686;SDS011;51113;53.646;-113.674;2023-04-06T06:34:03;18.85;;;10.85;;
64686;SDS011;51113;53.646;-113.674;2023-04-06T06:36:32;22.90;;;11.50;;
64686;SDS011;51113;53.646;-113.674;2023-04-06T06:39:01;21.13;;;11.30;;
64686;SDS011;51113;53.646;-113.674;2023-04-06T06:41:31;24.70;;;11.77;;
64686;SDS011;51113;53.646;-113.674;2023-04-06T06:44:00;21.90;;;12.00;;
64686;SDS011;51113;53.646;-113.674;2023-04-06T06:46:29;23.10;;;11.55;;
64686;SDS011;51113;53.646;-113.674;2023-04-06T06:48:58;22.08;;;11.20;;
64686;SDS011;51113;53.646;-113.674;2023-04-06T06:51:27;24.45;;;11.75;;
64686;SDS011;51113;53.646;-113.674;2023-04-06T06:53:56;22.33;;;11.40;;
64686;SDS011;51113;53.646;-113.674;2023-04-06T06:56:25;25.95;;;12.45;;
64686;SDS011;51113;53.646;-113.674;2023-04-06T06:58:55;27.85;;;12.98;;
64686;SDS011;51113;53.646;-113.674;2023-04-06T07:01:24;25.98;;;11.90;;
64686;SDS011;51113;53.646;-113.674;2023-04-06T07:03:53;21.90;;;11.82;;
64686;SDS011;51113;53.646;-113.674;2023-04-06T07:06:22;27.75;;;12.70;;
64686;SDS011;51113;53.646;-113.674;2023-04-06T07:08:51;20.48;;;11.18;;
64686;SDS011;51113;53.646;-113.674;2023-04-06T07:11:20;22.00;;;12.07;;
64686;SDS011;51113;53.646;-113.674;2023-04-06T07:13:49;21.20;;;11.80;;
64686;SDS011;51113;53.646;-113.674;2023-04-06T07:16:17;30.98;;;13.05;;
64686;SDS011;51113;53.646;-113.674;2023-04-06T07:18:46;27.38;;;12.25;;
64686;SDS011;51113;53.646;-113.674;2023-04-06T07:21:15;29.65;;;12.55;;
64686;SDS011;51113;53.646;-113.674;2023-04-06T07:23:43;25.45;;;12.27;;
64686;SDS011;51113;53.646;-113.674;2023-04-06T07:26:12;34.97;;;12.18;;
64686;SDS011;51113;53.646;-113.674;2023-04-06T07:28:41;26.08;;;13.30;;
64686;SDS011;51113;53.646;-113.674;2023-04-06T07:31:09;34.45;;;13.23;;
64686;SDS011;51113;53.646;-113.674;2023-04-06T07:33:38;36.72;;;14.13;;
64686;SDS011;51113;53.646;-113.674;2023-04-06T07:36:07;33.08;;;13.18;;
64686;SDS011;51113;53.646;-113.674;2023-04-06T07:38:36;29.75;;;12.88;;
64686;SDS011;51113;53.646;-113.674;2023-04-06T07:41:05;23.75;;;13.23;;
64686;SDS011;51113;53.646;-113.674;2023-04-06T07:43:33;27.00;;;13.48;;
64686;SDS011;51113;53.646;-113.674;2023-04-06T07:46:02;24.63;;;13.07;;
64686;SDS011;51113;53.646;-113.674;2023-04-06T07:48:31;26.40;;;13.55;;
64686;SDS011;51113;53.646;-113.674;2023-04-06T07:51:01;25.08;;;12.63;;
64686;SDS011;51113;53.646;-113.674;2023-04-06T07:53:30;24.70;;;13.57;;
64686;SDS011;51113;53.646;-113.674;2023-04-06T07:55:59;23.85;;;12.82;;
64686;SDS011;51113;53.646;-113.674;2023-04-06T07:58:28;32.15;;;13.80;;
64686;SDS011;51113;53.646;-113.674;2023-04-06T08:00:57;26.20;;;13.77;;
64686;SDS011;51113;53.646;-113.674;2023-04-06T08:03:26;24.75;;;13.25;;
64686;SDS011;51113;53.646;-113.674;2023-04-06T08:05:55;23.25;;;12.60;;
64686;SDS011;51113;53.646;-113.674;2023-04-06T08:08:24;25.08;;;13.75;;
64686;SDS011;51113;53.646;-113.674;2023-04-06T08:10:52;29.40;;;13.73;;
64686;SDS011;51113;53.646;-113.674;2023-04-06T08:13:22;23.25;;;12.98;;
64686;SDS011;51113;53.646;-113.674;2023-04-06T08:15:51;33.53;;;13.43;;
64686;SDS011;51113;53.646;-113.674;2023-04-06T08:18:21;26.80;;;13.85;;
64686;SDS011;51113;53.646;-113.674;2023-04-06T08:20:49;32.90;;;13.82;;
64686;SDS011;51113;53.646;-113.674;2023-04-06T08:23:18;26.95;;;13.70;;
64686;SDS011;51113;53.646;-113.674;2023-04-06T08:25:47;23.20;;;13.65;;
64686;SDS011;51113;53.646;-113.674;2023-04-06T08:28:16;25.67;;;14.32;;
64686;SDS011;51113;53.646;-113.674;2023-04-06T08:30:44;26.13;;;13.20;;
64686;SDS011;51113;53.646;-113.674;2023-04-06T08:33:13;27.13;;;14.52;;
64686;SDS011;51113;53.646;-113.674;2023-04-06T08:35:42;26.15;;;13.00;;
64686;SDS011;51113;53.646;-113.674;2023-04-06T08:38:11;24.60;;;13.95;;
64686;SDS011;51113;53.646;-113.674;2023-04-06T08:40:40;26.85;;;14.48;;
64686;SDS011;51113;53.646;-113.674;2023-04-06T08:43:12;27.08;;;13.98;;
64686;SDS011;51113;53.646;-113.674;2023-04-06T08:45:41;31.50;;;14.50;;
64686;SDS011;51113;53.646;-113.674;2023-04-06T08:48:11;27.73;;;14.25;;
64686;SDS011;51113;53.646;-113.674;2023-04-06T08:50:40;28.00;;;14.60;;
64686;SDS011;51113;53.646;-113.674;2023-04-06T08:53:09;26.40;;;14.65;;
64686;SDS011;51113;53.646;-113.674;2023-04-06T08:55:39;30.65;;;13.68;;
64686;SDS011;51113;53.646;-113.674;2023-04-06T08:58:09;34.22;;;14.65;;
64686;SDS011;51113;53.646;-113.674;2023-04-06T09:00:41;27.23;;;14.70;;
64686;SDS011;51113;53.646;-113.674;2023-04-06T09:03:10;32.38;;;15.52;;
64686;SDS011;51113;53.646;-113.674;2023-04-06T09:05:41;25.50;;;14.40;;
64686;SDS011;51113;53.646;-113.674;2023-04-06T09:08:09;31.05;;;14.70;;
64686;SDS011;51113;53.646;-113.674;2023-04-06T09:10:41;32.05;;;14.80;;
64686;SDS011;51113;53.646;-113.674;2023-04-06T09:13:10;30.73;;;15.30;;
64686;SDS011;51113;53.646;-113.674;2023-04-06T09:15:39;27.83;;;15.35;;
64686;SDS011;51113;53.646;-113.674;2023-04-06T09:18:07;26.73;;;14.70;;
64686;SDS011;51113;53.646;-113.674;2023-04-06T09:20:36;31.42;;;14.55;;
64686;SDS011;51113;53.646;-113.674;2023-04-06T09:23:05;29.77;;;15.05;;
64686;SDS011;51113;53.646;-113.674;2023-04-06T09:25:34;29.75;;;15.45;;
64686;SDS011;51113;53.646;-113.674;2023-04-06T09:28:03;26.55;;;15.13;;
64686;SDS011;51113;53.646;-113.674;2023-04-06T09:30:32;29.77;;;15.38;;
64686;SDS011;51113;53.646;-113.674;2023-04-06T09:33:02;28.85;;;15.32;;
64686;SDS011;51113;53.646;-113.674;2023-04-06T09:35:31;28.23;;;15.05;;
64686;SDS011;51113;53.646;-113.674;2023-04-06T09:38:09;27.23;;;14.82;;
64686;SDS011;51113;53.646;-113.674;2023-04-06T09:40:51;28.13;;;15.13;;
64686;SDS011;51113;53.646;-113.674;2023-04-06T09:43:27;29.67;;;15.35;;
64686;SDS011;51113;53.646;-113.674;2023-04-06T09:45:56;30.08;;;15.65;;
64686;SDS011;51113;53.646;-113.674;2023-04-06T09:48:26;28.58;;;14.95;;
64686;SDS011;51113;53.646;-113.674;2023-04-06T09:50:58;33.30;;;15.07;;
64686;SDS011;51113;53.646;-113.674;2023-04-06T09:53:28;32.47;;;16.13;;
64686;SDS011;51113;53.646;-113.674;2023-04-06T09:55:57;31.00;;;15.70;;
64686;SDS011;51113;53.646;-113.674;2023-04-06T09:58:31;28.25;;;15.60;;
64686;SDS011;51113;53.646;-113.674;2023-04-06T10:01:10;30.60;;;15.27;;
64686;SDS011;51113;53.646;-113.674;2023-04-06T10:08:45;35.45;;;15.65;;
64686;SDS011;51113;53.646;-113.674;2023-04-06T10:11:16;30.88;;;15.73;;
64686;SDS011;51113;53.646;-113.674;2023-04-06T10:13:46;28.80;;;15.50;;
64686;SDS011;51113;53.646;-113.674;2023-04-06T10:16:16;33.08;;;16.15;;
64686;SDS011;51113;53.646;-113.674;2023-04-06T10:18:47;31.73;;;15.65;;
64686;SDS011;51113;53.646;-113.674;2023-04-06T10:21:20;32.70;;;15.50;;
64686;SDS011;51113;53.646;-113.674;2023-04-06T10:23:54;30.35;;;16.63;;
64686;SDS011;51113;53.646;-113.674;2023-04-06T10:26:27;29.02;;;15.57;;
64686;SDS011;51113;53.646;-113.674;2023-04-06T10:29:01;34.55;;;15.95;;
64686;SDS011;51113;53.646;-113.674;2023-04-06T10:31:31;31.50;;;15.30;;
64686;SDS011;51113;53.646;-113.674;2023-04-06T10:34:01;28.92;;;15.75;;
64686;SDS011;51113;53.646;-113.674;2023-04-06T10:36:33;32.30;;;14.88;;
64686;SDS011;51113;53.646;-113.674;2023-04-06T10:39:04;29.30;;;15.52;;
64686;SDS011;51113;53.646;-113.674;2023-04-06T10:41:34;28.23;;;15.48;;
64686;SDS011;51113;53.646;-113.674;2023-04-06T10:44:22;28.83;;;15.25;;
64686;SDS011;51113;53.646;-113.674;2023-04-06T10:46:55;31.02;;;15.82;;
64686;SDS011;51113;53.646;-113.674;2023-04-06T10:49:25;33.03;;;16.58;;
64686;SDS011;51113;53.646;-113.674;2023-04-06T10:51:54;33.33;;;15.60;;
64686;SDS011;51113;53.646;-113.674;2023-04-06T10:54:24;30.13;;;15.23;;
64686;SDS011;51113;53.646;-113.674;2023-04-06T10:56:54;38.53;;;14.90;;
64686;SDS011;51113;53.646;-113.674;2023-04-06T10:59:24;36.03;;;17.33;;
64686;SDS011;51113;53.646;-113.674;2023-04-06T11:01:53;35.55;;;15.93;;
64686;SDS011;51113;53.646;-113.674;2023-04-06T11:04:24;31.55;;;15.70;;
64686;SDS011;51113;53.646;-113.674;2023-04-06T11:06:53;30.27;;;15.55;;
64686;SDS011;51113;53.646;-113.674;2023-04-06T11:09:24;29.98;;;14.95;;
64686;SDS011;51113;53.646;-113.674;2023-04-06T11:11:54;30.55;;;15.73;;
64686;SDS011;51113;53.646;-113.674;2023-04-06T11:14:23;31.27;;;15.93;;
64686;SDS011;51113;53.646;-113.674;2023-04-06T11:16:54;35.65;;;16.60;;
64686;SDS011;51113;53.646;-113.674;2023-04-06T11:19:23;29.75;;;15.55;;
64686;SDS011;51113;53.646;-113.674;2023-04-06T11:21:52;33.42;;;16.58;;
64686;SDS011;51113;53.646;-113.674;2023-04-06T11:24:21;29.85;;;16.00;;
64686;SDS011;51113;53.646;-113.674;2023-04-06T11:26:51;29.58;;;16.38;;
64686;SDS011;51113;53.646;-113.674;2023-04-06T11:29:29;32.38;;;17.17;;
64686;SDS011;51113;53.646;-113.674;2023-04-06T11:31:59;32.67;;;16.50;;
64686;SDS011;51113;53.646;-113.674;2023-04-06T11:34:29;33.25;;;16.27;;
64686;SDS011;51113;53.646;-113.674;2023-04-06T11:36:59;28.60;;;15.82;;
64686;SDS011;51113;53.646;-113.674;2023-04-06T11:39:39;29.25;;;15.57;;
64686;SDS011;51113;53.646;-113.674;2023-04-06T11:42:08;32.83;;;15.25;;
64686;SDS011;51113;53.646;-113.674;2023-04-06T11:44:38;33.08;;;16.35;;
64686;SDS011;51113;53.646;-113.674;2023-04-06T11:47:08;27.58;;;14.95;;
64686;SDS011;51113;53.646;-113.674;2023-04-06T11:49:39;29.38;;;15.25;;
64686;SDS011;51113;53.646;-113.674;2023-04-06T11:52:19;28.02;;;15.32;;
64686;SDS011;51113;53.646;-113.674;2023-04-06T11:54:52;31.52;;;15.65;;
64686;SDS011;51113;53.646;-113.674;2023-04-06T11:57:21;31.77;;;15.95;;
64686;SDS011;51113;53.646;-113.674;2023-04-06T11:59:53;33.42;;;15.52;;
64686;SDS011;51113;53.646;-113.674;2023-04-06T12:02:21;31.75;;;15.65;;
64686;SDS011;51113;53.646;-113.674;2023-04-06T12:04:50;31.02;;;15.23;;
64686;SDS011;51113;53.646;-113.674;2023-04-06T12:07:19;33.60;;;15.82;;
64686;SDS011;51113;53.646;-113.674;2023-04-06T12:09:48;28.52;;;14.70;;
64686;SDS011;51113;53.646;-113.674;2023-04-06T12:12:17;29.77;;;15.52;;
64686;SDS011;51113;53.646;-113.674;2023-04-06T12:14:46;28.42;;;15.38;;
64686;SDS011;51113;53.646;-113.674;2023-04-06T12:17:14;32.17;;;15.13;;
64686;SDS011;51113;53.646;-113.674;2023-04-06T12:19:43;31.63;;;15.50;;
64686;SDS011;51113;53.646;-113.674;2023-04-06T12:22:12;28.25;;;14.52;;
64686;SDS011;51113;53.646;-113.674;2023-04-06T12:24:41;26.48;;;14.52;;
64686;SDS011;51113;53.646;-113.674;2023-04-06T12:27:09;35.03;;;15.32;;
64686;SDS011;51113;53.646;-113.674;2023-04-06T12:29:39;27.13;;;15.10;;
64686;SDS011;51113;53.646;-113.674;2023-04-06T12:32:08;30.52;;;15.43;;
64686;SDS011;51113;53.646;-113.674;2023-04-06T12:34:37;28.27;;;14.75;;
64686;SDS011;51113;53.646;-113.674;2023-04-06T12:37:06;27.85;;;14.90;;
64686;SDS011;51113;53.646;-113.674;2023-04-06T12:39:34;30.23;;;15.68;;
64686;SDS011;51113;53.646;-113.674;2023-04-06T12:42:03;36.03;;;15.82;;
64686;SDS011;51113;53.646;-113.674;2023-04-06T12:44:32;28.75;;;14.25;;
64686;SDS011;51113;53.646;-113.674;2023-04-06T12:47:01;27.13;;;14.68;;
64686;SDS011;51113;53.646;-113.674;2023-04-06T12:49:30;30.27;;;14.93;;
64686;SDS011;51113;53.646;-113.674;2023-04-06T12:51:59;31.45;;;15.88;;
64686;SDS011;51113;53.646;-113.674;2023-04-06T12:54:28;31.50;;;16.75;;
64686;SDS011;51113;53.646;-113.674;2023-04-06T12:56:56;29.73;;;15.18;;
64686;SDS011;51113;53.646;-113.674;2023-04-06T12:59:25;34.75;;;15.23;;
64686;SDS011;51113;53.646;-113.674;2023-04-06T13:01:54;26.25;;;14.32;;
64686;SDS011;51113;53.646;-113.674;2023-04-06T13:04:23;26.15;;;14.63;;
64686;SDS011;51113;53.646;-113.674;2023-04-06T13:06:52;28.13;;;15.00;;
64686;SDS011;51113;53.646;-113.674;2023-04-06T13:09:20;35.30;;;15.32;;
64686;SDS011;51113;53.646;-113.674;2023-04-06T13:11:49;30.98;;;15.45;;
64686;SDS011;51113;53.646;-113.674;2023-04-06T13:14:18;31.42;;;15.45;;
64686;SDS011;51113;53.646;-113.674;2023-04-06T13:16:47;28.92;;;15.60;;
64686;SDS011;51113;53.646;-113.674;2023-04-06T13:19:16;26.13;;;14.77;;
64686;SDS011;51113;53.646;-113.674;2023-04-06T13:21:45;26.55;;;14.15;;
64686;SDS011;51113;53.646;-113.674;2023-04-06T13:24:14;33.63;;;15.35;;
64686;SDS011;51113;53.646;-113.674;2023-04-06T13:26:43;31.02;;;15.73;;
64686;SDS011;51113;53.646;-113.674;2023-04-06T13:29:12;33.00;;;15.20;;
64686;SDS011;51113;53.646;-113.674;2023-04-06T13:31:41;28.52;;;15.35;;
64686;SDS011;51113;53.646;-113.674;2023-04-06T13:34:10;29.40;;;14.70;;
64686;SDS011;51113;53.646;-113.674;2023-04-06T13:36:38;27.83;;;15.90;;
64686;SDS011;51113;53.646;-113.674;2023-04-06T13:39:09;28.17;;;14.80;;
64686;SDS011;51113;53.646;-113.674;2023-04-06T13:41:38;30.75;;;15.38;;
64686;SDS011;51113;53.646;-113.674;2023-04-06T13:44:07;28.00;;;14.23;;
64686;SDS011;51113;53.646;-113.674;2023-04-06T13:46:36;31.10;;;14.60;;
64686;SDS011;51113;53.646;-113.674;2023-04-06T13:49:05;28.90;;;15.00;;
64686;SDS011;51113;53.646;-113.674;2023-04-06T13:51:33;29.92;;;15.55;;
64686;SDS011;51113;53.646;-113.674;2023-04-06T13:54:03;29.45;;;15.30;;
64686;SDS011;51113;53.646;-113.674;2023-04-06T13:56:31;30.02;;;14.20;;
64686;SDS011;51113;53.646;-113.674;2023-04-06T13:59:00;27.50;;;13.77;;
64686;SDS011;51113;53.646;-113.674;2023-04-06T14:01:30;27.73;;;13.35;;
64686;SDS011;51113;53.646;-113.674;2023-04-06T14:03:59;26.42;;;14.43;;
64686;SDS011;51113;53.646;-113.674;2023-04-06T14:06:28;35.92;;;14.70;;
64686;SDS011;51113;53.646;-113.674;2023-04-06T14:08:57;33.58;;;15.00;;